sensor_id;sensor_type;location;lat;lon;timestamp;P1;durP1;ratioP1;P2;durP2;ratioP2
51612;SDS011;37694;51.748;14.326;2023-04-01T00:02:02;7.30;;;5.30;;
51612;SDS011;37694;51.748;14.326;2023-04-01T00:04:27;7.00;;;5.47;;
51612;SDS011;37694;51.748;14.326;2023-04-01T00:06:53;8.65;;;6.20;;
51612;SDS011;37694;51.748;14.326;2023-04-01T00:09:19;10.52;;;5.22;;
51612;SDS011;37694;51.748;14.326;2023-04-01T00:11:44;8.10;;;5.07;;
51612;SDS011;37694;51.748;14.326;2023-04-01T00:14:10;10.48;;;6.00;;
51612;SDS011;37694;51.748;14.326;2023-04-01T00:16:36;8.95;;;5.63;;
51612;SDS011;37694;51.748;14.326;2023-04-01T00:19:02;8.18;;;5.57;;
51612;SDS011;37694;51.748;14.326;2023-04-01T00:21:28;6.40;;;5.38;;
51612;SDS011;37694;51.748;14.326;2023-04-01T00:23:54;7.22;;;5.63;;
51612;SDS011;37694;51.748;14.326;2023-04-01T00:26:20;6.00;;;5.10;;
51612;SDS011;37694;51.748;14.326;2023-04-01T00:28:46;7.40;;;5.65;;
51612;SDS011;37694;51.748;14.326;2023-04-01T00:31:13;7.43;;;5.63;;
51612;SDS011;37694;51.748;14.326;2023-04-01T00:33:39;5.60;;;4.95;;
51612;SDS011;37694;51.748;14.326;2023-04-01T00:36:12;8.48;;;5.95;;
51612;SDS011;37694;51.748;14.326;2023-04-01T00:38:40;10.57;;;5.78;;
51612;SDS011;37694;51.748;14.326;2023-04-01T00:41:07;6.70;;;5.35;;
51612;SDS011;37694;51.748;14.326;2023-04-01T00:43:34;7.88;;;5.32;;
51612;SDS011;37694;51.748;14.326;2023-04-01T00:46:00;6.50;;;5.22;;
51612;SDS011;37694;51.748;14.326;2023-04-01T00:48:27;5.70;;;5.07;;
51612;SDS011;37694;51.748;14.326;2023-04-01T00:51:13;6.05;;;5.32;;
51612;SDS011;37694;51.748;14.326;2023-04-01T00:53:43;6.63;;;5.68;;
51612;SDS011;37694;51.748;14.326;2023-04-01T00:56:33;5.45;;;4.90;;
51612;SDS011;37694;51.748;14.326;2023-04-01T00:59:03;6.28;;;5.20;;
51612;SDS011;37694;51.748;14.326;2023-04-01T01:01:33;7.30;;;4.68;;
51612;SDS011;37694;51.748;14.326;2023-04-01T01:04:00;6.47;;;5.25;;
51612;SDS011;37694;51.748;14.326;2023-04-01T01:09:02;6.32;;;5.32;;
51612;SDS011;37694;51.748;14.326;2023-04-01T01:11:42;7.00;;;5.40;;
51612;SDS011;37694;51.748;14.326;2023-04-01T01:16:46;7.78;;;5.55;;
51612;SDS011;37694;51.748;14.326;2023-04-01T01:27:34;6.65;;;5.55;;
51612;SDS011;37694;51.748;14.326;2023-04-01T01:35:36;5.93;;;5.32;;
51612;SDS011;37694;51.748;14.326;2023-04-01T01:38:16;5.15;;;4.60;;
51612;SDS011;37694;51.748;14.326;2023-04-01T01:40:45;6.15;;;5.55;;
51612;SDS011;37694;51.748;14.326;2023-04-01T01:43:14;6.38;;;4.45;;
51612;SDS011;37694;51.748;14.326;2023-04-01T01:45:44;5.70;;;4.88;;
51612;SDS011;37694;51.748;14.326;2023-04-01T01:48:13;5.47;;;4.88;;
51612;SDS011;37694;51.748;14.326;2023-04-01T01:50:41;6.43;;;5.32;;
51612;SDS011;37694;51.748;14.326;2023-04-01T01:53:08;5.15;;;4.65;;
51612;SDS011;37694;51.748;14.326;2023-04-01T01:55:40;8.65;;;4.72;;
51612;SDS011;37694;51.748;14.326;2023-04-01T01:58:10;4.93;;;4.43;;
51612;SDS011;37694;51.748;14.326;2023-04-01T02:00:37;5.32;;;4.82;;
51612;SDS011;37694;51.748;14.326;2023-04-01T02:03:04;5.55;;;4.57;;
51612;SDS011;37694;51.748;14.326;2023-04-01T02:05:30;6.85;;;4.65;;
51612;SDS011;37694;51.748;14.326;2023-04-01T02:08:01;5.13;;;4.40;;
51612;SDS011;37694;51.748;14.326;2023-04-01T02:10:34;7.93;;;4.60;;
51612;SDS011;37694;51.748;14.326;2023-04-01T02:13:04;6.15;;;4.70;;
51612;SDS011;37694;51.748;14.326;2023-04-01T02:15:35;5.28;;;4.57;;
51612;SDS011;37694;51.748;14.326;2023-04-01T02:18:05;5.93;;;4.70;;
51612;SDS011;37694;51.748;14.326;2023-04-01T02:20:31;8.13;;;4.85;;
51612;SDS011;37694;51.748;14.326;2023-04-01T02:22:58;4.70;;;4.30;;
51612;SDS011;37694;51.748;14.326;2023-04-01T02:25:28;5.93;;;4.30;;
51612;SDS011;37694;51.748;14.326;2023-04-01T02:27:58;5.82;;;4.40;;
51612;SDS011;37694;51.748;14.326;2023-04-01T02:30:29;6.57;;;4.97;;
51612;SDS011;37694;51.748;14.326;2023-04-01T02:32:56;4.20;;;3.80;;
51612;SDS011;37694;51.748;14.326;2023-04-01T02:35:23;4.43;;;4.03;;
51612;SDS011;37694;51.748;14.326;2023-04-01T02:37:50;4.80;;;4.28;;
51612;SDS011;37694;51.748;14.326;2023-04-01T02:40:18;5.05;;;3.83;;
51612;SDS011;37694;51.748;14.326;2023-04-01T02:42:45;4.78;;;4.25;;
51612;SDS011;37694;51.748;14.326;2023-04-01T02:45:11;4.28;;;3.92;;
51612;SDS011;37694;51.748;14.326;2023-04-01T02:47:38;4.65;;;4.25;;
51612;SDS011;37694;51.748;14.326;2023-04-01T02:50:04;4.95;;;4.40;;
51612;SDS011;37694;51.748;14.326;2023-04-01T02:52:30;5.05;;;4.55;;
51612;SDS011;37694;51.748;14.326;2023-04-01T02:54:56;4.30;;;3.90;;
51612;SDS011;37694;51.748;14.326;2023-04-01T02:57:22;5.45;;;3.50;;
51612;SDS011;37694;51.748;14.326;2023-04-01T02:59:49;4.28;;;3.88;;
51612;SDS011;37694;51.748;14.326;2023-04-01T03:02:15;3.95;;;3.50;;
51612;SDS011;37694;51.748;14.326;2023-04-01T03:04:41;4.97;;;4.00;;
51612;SDS011;37694;51.748;14.326;2023-04-01T03:07:06;4.30;;;3.45;;
51612;SDS011;37694;51.748;14.326;2023-04-01T03:09:35;5.05;;;3.97;;
51612;SDS011;37694;51.748;14.326;2023-04-01T03:12:01;4.15;;;3.80;;
51612;SDS011;37694;51.748;14.326;2023-04-01T03:14:27;3.58;;;3.28;;
51612;SDS011;37694;51.748;14.326;2023-04-01T03:16:52;6.15;;;4.15;;
51612;SDS011;37694;51.748;14.326;2023-04-01T03:19:18;4.00;;;3.60;;
51612;SDS011;37694;51.748;14.326;2023-04-01T03:21:44;5.30;;;3.40;;
51612;SDS011;37694;51.748;14.326;2023-04-01T03:24:10;4.60;;;3.42;;
51612;SDS011;37694;51.748;14.326;2023-04-01T03:26:35;4.30;;;3.75;;
51612;SDS011;37694;51.748;14.326;2023-04-01T03:29:01;5.10;;;3.92;;
51612;SDS011;37694;51.748;14.326;2023-04-01T03:31:26;3.92;;;3.30;;
51612;SDS011;37694;51.748;14.326;2023-04-01T03:33:52;5.40;;;3.60;;
51612;SDS011;37694;51.748;14.326;2023-04-01T03:36:18;4.10;;;3.70;;
51612;SDS011;37694;51.748;14.326;2023-04-01T03:38:44;5.85;;;4.13;;
51612;SDS011;37694;51.748;14.326;2023-04-01T03:41:16;3.28;;;2.97;;
51612;SDS011;37694;51.748;14.326;2023-04-01T03:43:42;4.90;;;3.78;;
51612;SDS011;37694;51.748;14.326;2023-04-01T03:46:08;3.95;;;3.58;;
51612;SDS011;37694;51.748;14.326;2023-04-01T03:48:34;4.00;;;3.58;;
51612;SDS011;37694;51.748;14.326;2023-04-01T03:51:00;3.45;;;3.15;;
51612;SDS011;37694;51.748;14.326;2023-04-01T03:53:25;3.83;;;3.42;;
51612;SDS011;37694;51.748;14.326;2023-04-01T03:55:52;4.07;;;3.38;;
51612;SDS011;37694;51.748;14.326;2023-04-01T03:58:18;4.68;;;3.03;;
51612;SDS011;37694;51.748;14.326;2023-04-01T04:00:43;3.40;;;3.10;;
51612;SDS011;37694;51.748;14.326;2023-04-01T04:03:09;3.55;;;3.08;;
51612;SDS011;37694;51.748;14.326;2023-04-01T04:05:35;3.25;;;2.95;;
51612;SDS011;37694;51.748;14.326;2023-04-01T04:08:00;3.58;;;3.28;;
51612;SDS011;37694;51.748;14.326;2023-04-01T04:10:26;3.30;;;3.00;;
51612;SDS011;37694;51.748;14.326;2023-04-01T04:12:54;4.03;;;3.60;;
51612;SDS011;37694;51.748;14.326;2023-04-01T04:15:20;3.38;;;2.92;;
51612;SDS011;37694;51.748;14.326;2023-04-01T04:17:45;3.63;;;3.33;;
51612;SDS011;37694;51.748;14.326;2023-04-01T04:20:12;5.47;;;3.10;;
51612;SDS011;37694;51.748;14.326;2023-04-01T04:22:38;3.45;;;3.15;;
51612;SDS011;37694;51.748;14.326;2023-04-01T04:25:04;4.70;;;3.10;;
51612;SDS011;37694;51.748;14.326;2023-04-01T04:27:30;4.28;;;2.90;;
51612;SDS011;37694;51.748;14.326;2023-04-01T04:29:55;3.22;;;2.63;;
51612;SDS011;37694;51.748;14.326;2023-04-01T04:32:21;2.70;;;2.50;;
51612;SDS011;37694;51.748;14.326;2023-04-01T04:34:47;3.05;;;2.75;;
51612;SDS011;37694;51.748;14.326;2023-04-01T04:37:12;3.95;;;3.25;;
51612;SDS011;37694;51.748;14.326;2023-04-01T04:39:38;3.28;;;2.97;;
51612;SDS011;37694;51.748;14.326;2023-04-01T04:42:04;3.03;;;2.72;;
51612;SDS011;37694;51.748;14.326;2023-04-01T04:44:30;3.58;;;3.03;;
51612;SDS011;37694;51.748;14.326;2023-04-01T04:46:56;3.65;;;2.60;;
51612;SDS011;37694;51.748;14.326;2023-04-01T04:49:21;4.32;;;2.90;;
51612;SDS011;37694;51.748;14.326;2023-04-01T04:51:47;3.05;;;2.75;;
51612;SDS011;37694;51.748;14.326;2023-04-01T04:54:13;3.83;;;2.97;;
51612;SDS011;37694;51.748;14.326;2023-04-01T04:56:38;3.13;;;2.72;;
51612;SDS011;37694;51.748;14.326;2023-04-01T04:59:04;4.25;;;2.88;;
51612;SDS011;37694;51.748;14.326;2023-04-01T05:01:31;2.97;;;2.55;;
51612;SDS011;37694;51.748;14.326;2023-04-01T05:03:58;2.88;;;2.42;;
51612;SDS011;37694;51.748;14.326;2023-04-01T05:06:24;4.13;;;2.70;;
51612;SDS011;37694;51.748;14.326;2023-04-01T05:08:50;3.33;;;3.03;;
51612;SDS011;37694;51.748;14.326;2023-04-01T05:11:17;4.28;;;2.80;;
51612;SDS011;37694;51.748;14.326;2023-04-01T05:13:44;2.85;;;2.65;;
51612;SDS011;37694;51.748;14.326;2023-04-01T05:16:11;4.55;;;2.95;;
51612;SDS011;37694;51.748;14.326;2023-04-01T05:18:39;4.10;;;2.72;;
51612;SDS011;37694;51.748;14.326;2023-04-01T05:21:06;6.32;;;2.80;;
51612;SDS011;37694;51.748;14.326;2023-04-01T05:23:33;5.20;;;2.67;;
51612;SDS011;37694;51.748;14.326;2023-04-01T05:26:02;3.47;;;3.13;;
51612;SDS011;37694;51.748;14.326;2023-04-01T05:28:29;2.80;;;2.13;;
51612;SDS011;37694;51.748;14.326;2023-04-01T05:30:55;6.22;;;2.58;;
51612;SDS011;37694;51.748;14.326;2023-04-01T05:33:24;11.27;;;2.80;;
51612;SDS011;37694;51.748;14.326;2023-04-01T05:35:50;3.35;;;2.40;;
51612;SDS011;37694;51.748;14.326;2023-04-01T05:38:15;3.92;;;2.25;;
51612;SDS011;37694;51.748;14.326;2023-04-01T05:40:41;3.42;;;2.50;;
51612;SDS011;37694;51.748;14.326;2023-04-01T05:43:07;5.05;;;2.95;;
51612;SDS011;37694;51.748;14.326;2023-04-01T05:45:32;2.53;;;2.33;;
51612;SDS011;37694;51.748;14.326;2023-04-01T05:47:59;2.53;;;2.33;;
51612;SDS011;37694;51.748;14.326;2023-04-01T05:50:25;2.92;;;2.72;;
51612;SDS011;37694;51.748;14.326;2023-04-01T05:52:51;6.18;;;2.40;;
51612;SDS011;37694;51.748;14.326;2023-04-01T05:55:17;7.03;;;2.95;;
51612;SDS011;37694;51.748;14.326;2023-04-01T05:57:44;9.93;;;2.20;;
51612;SDS011;37694;51.748;14.326;2023-04-01T06:00:11;3.40;;;2.17;;
51612;SDS011;37694;51.748;14.326;2023-04-01T06:02:37;4.50;;;2.20;;
51612;SDS011;37694;51.748;14.326;2023-04-01T06:05:11;3.38;;;2.45;;
51612;SDS011;37694;51.748;14.326;2023-04-01T06:07:46;4.63;;;2.83;;
51612;SDS011;37694;51.748;14.326;2023-04-01T06:10:16;3.33;;;2.13;;
51612;SDS011;37694;51.748;14.326;2023-04-01T06:13:00;3.08;;;2.00;;
51612;SDS011;37694;51.748;14.326;2023-04-01T06:20:54;2.22;;;1.80;;
51612;SDS011;37694;51.748;14.326;2023-04-01T06:39:17;2.83;;;1.95;;
51612;SDS011;37694;51.748;14.326;2023-04-01T06:47:11;4.03;;;2.35;;
51612;SDS011;37694;51.748;14.326;2023-04-01T06:52:47;2.75;;;1.65;;
51612;SDS011;37694;51.748;14.326;2023-04-01T06:57:54;2.08;;;1.85;;
51612;SDS011;37694;51.748;14.326;2023-04-01T07:00:27;3.40;;;1.80;;
51612;SDS011;37694;51.748;14.326;2023-04-01T07:03:16;3.90;;;1.67;;
51612;SDS011;37694;51.748;14.326;2023-04-01T07:05:56;3.40;;;1.85;;
51612;SDS011;37694;51.748;14.326;2023-04-01T07:08:26;4.40;;;2.00;;
51612;SDS011;37694;51.748;14.326;2023-04-01T07:10:55;7.80;;;1.98;;
51612;SDS011;37694;51.748;14.326;2023-04-01T07:13:29;5.35;;;1.83;;
51612;SDS011;37694;51.748;14.326;2023-04-01T07:16:07;3.33;;;1.60;;
51612;SDS011;37694;51.748;14.326;2023-04-01T07:19:02;3.72;;;1.98;;
51612;SDS011;37694;51.748;14.326;2023-04-01T07:21:47;2.00;;;1.80;;
51612;SDS011;37694;51.748;14.326;2023-04-01T07:24:26;4.65;;;2.15;;
51612;SDS011;37694;51.748;14.326;2023-04-01T07:26:57;4.32;;;2.00;;
51612;SDS011;37694;51.748;14.326;2023-04-01T07:29:23;5.88;;;1.80;;
51612;SDS011;37694;51.748;14.326;2023-04-01T07:34:47;3.63;;;1.73;;
51612;SDS011;37694;51.748;14.326;2023-04-01T07:37:16;6.47;;;2.35;;
51612;SDS011;37694;51.748;14.326;2023-04-01T07:48:33;5.80;;;1.83;;
51612;SDS011;37694;51.748;14.326;2023-04-01T07:51:10;2.03;;;1.50;;
51612;SDS011;37694;51.748;14.326;2023-04-01T08:20:08;13.73;;;2.03;;
51612;SDS011;37694;51.748;14.326;2023-04-01T08:23:13;13.73;;;2.05;;
51612;SDS011;37694;51.748;14.326;2023-04-01T08:32:18;2.05;;;1.65;;
51612;SDS011;37694;51.748;14.326;2023-04-01T08:34:37;9.80;;;1.65;;
51612;SDS011;37694;51.748;14.326;2023-04-01T08:37:07;3.63;;;1.40;;
51612;SDS011;37694;51.748;14.326;2023-04-01T08:53:27;18.35;;;2.55;;
51612;SDS011;37694;51.748;14.326;2023-04-01T09:04:22;16.17;;;2.63;;
51612;SDS011;37694;51.748;14.326;2023-04-01T09:09:58;18.52;;;3.08;;
51612;SDS011;37694;51.748;14.326;2023-04-01T09:26:53;7.75;;;2.10;;
51612;SDS011;37694;51.748;14.326;2023-04-01T09:37:17;8.13;;;2.35;;
51612;SDS011;37694;51.748;14.326;2023-04-01T09:53:34;7.90;;;2.20;;
51612;SDS011;37694;51.748;14.326;2023-04-01T10:01:29;10.18;;;2.53;;
51612;SDS011;37694;51.748;14.326;2023-04-01T10:10:19;7.70;;;2.13;;
51612;SDS011;37694;51.748;14.326;2023-04-01T10:21:33;5.45;;;2.03;;
51612;SDS011;37694;51.748;14.326;2023-04-01T10:27:20;6.65;;;2.40;;
51612;SDS011;37694;51.748;14.326;2023-04-01T10:56:55;9.05;;;2.45;;
51612;SDS011;37694;51.748;14.326;2023-04-01T11:08:09;6.45;;;2.15;;
51612;SDS011;37694;51.748;14.326;2023-04-01T11:19:32;8.52;;;3.35;;
51612;SDS011;37694;51.748;14.326;2023-04-01T11:51:22;13.23;;;2.88;;
51612;SDS011;37694;51.748;14.326;2023-04-01T12:13:02;7.72;;;1.70;;
51612;SDS011;37694;51.748;14.326;2023-04-01T12:23:39;7.63;;;1.77;;
51612;SDS011;37694;51.748;14.326;2023-04-01T12:28:52;7.80;;;1.35;;
51612;SDS011;37694;51.748;14.326;2023-04-01T12:31:27;5.38;;;0.85;;
51612;SDS011;37694;51.748;14.326;2023-04-01T12:42:38;9.05;;;1.67;;
51612;SDS011;37694;51.748;14.326;2023-04-01T12:45:30;9.75;;;1.55;;
51612;SDS011;37694;51.748;14.326;2023-04-01T12:50:34;9.10;;;1.55;;
51612;SDS011;37694;51.748;14.326;2023-04-01T12:53:18;9.85;;;1.65;;
51612;SDS011;37694;51.748;14.326;2023-04-01T12:56:00;17.13;;;1.77;;
51612;SDS011;37694;51.748;14.326;2023-04-01T13:06:43;9.23;;;1.77;;
51612;SDS011;37694;51.748;14.326;2023-04-01T13:09:29;11.93;;;2.15;;
51612;SDS011;37694;51.748;14.326;2023-04-01T13:23:36;15.90;;;2.72;;
51612;SDS011;37694;51.748;14.326;2023-04-01T13:28:53;14.05;;;3.13;;
51612;SDS011;37694;51.748;14.326;2023-04-01T13:34:23;9.18;;;3.22;;
51612;SDS011;37694;51.748;14.326;2023-04-01T13:37:03;11.45;;;3.10;;
51612;SDS011;37694;51.748;14.326;2023-04-01T13:50:32;21.92;;;3.03;;
51612;SDS011;37694;51.748;14.326;2023-04-01T14:03:41;29.13;;;4.00;;
51612;SDS011;37694;51.748;14.326;2023-04-01T14:06:31;9.25;;;2.47;;
51612;SDS011;37694;51.748;14.326;2023-04-01T14:12:08;14.82;;;3.35;;
51612;SDS011;37694;51.748;14.326;2023-04-01T14:18:24;13.80;;;2.83;;
51612;SDS011;37694;51.748;14.326;2023-04-01T14:23:39;15.95;;;3.20;;
51612;SDS011;37694;51.748;14.326;2023-04-01T14:26:26;13.40;;;2.33;;
51612;SDS011;37694;51.748;14.326;2023-04-01T14:29:24;9.88;;;2.28;;
51612;SDS011;37694;51.748;14.326;2023-04-01T14:49:29;7.35;;;1.90;;
51612;SDS011;37694;51.748;14.326;2023-04-01T14:51:55;11.55;;;2.55;;
51612;SDS011;37694;51.748;14.326;2023-04-01T14:54:36;10.57;;;2.60;;
51612;SDS011;37694;51.748;14.326;2023-04-01T14:57:10;18.60;;;3.08;;
51612;SDS011;37694;51.748;14.326;2023-04-01T14:59:41;8.80;;;2.20;;
51612;SDS011;37694;51.748;14.326;2023-04-01T15:02:42;6.10;;;1.80;;
51612;SDS011;37694;51.748;14.326;2023-04-01T15:08:29;15.40;;;2.33;;
51612;SDS011;37694;51.748;14.326;2023-04-01T15:11:24;10.75;;;2.85;;
51612;SDS011;37694;51.748;14.326;2023-04-01T15:14:28;10.10;;;2.10;;
51612;SDS011;37694;51.748;14.326;2023-04-01T15:17:03;14.52;;;2.80;;
51612;SDS011;37694;51.748;14.326;2023-04-01T15:30:39;10.50;;;2.60;;
51612;SDS011;37694;51.748;14.326;2023-04-01T15:50:40;12.25;;;2.20;;
51612;SDS011;37694;51.748;14.326;2023-04-01T15:53:30;14.85;;;2.70;;
51612;SDS011;37694;51.748;14.326;2023-04-01T15:58:54;18.60;;;2.85;;
51612;SDS011;37694;51.748;14.326;2023-04-01T16:01:58;15.70;;;2.47;;
51612;SDS011;37694;51.748;14.326;2023-04-01T16:05:05;11.80;;;2.40;;
51612;SDS011;37694;51.748;14.326;2023-04-01T16:14:06;4.03;;;1.90;;
51612;SDS011;37694;51.748;14.326;2023-04-01T16:16:49;11.23;;;2.50;;
51612;SDS011;37694;51.748;14.326;2023-04-01T16:22:23;9.77;;;2.83;;
51612;SDS011;37694;51.748;14.326;2023-04-01T16:30:37;7.80;;;2.40;;
51612;SDS011;37694;51.748;14.326;2023-04-01T16:33:17;9.13;;;2.03;;
51612;SDS011;37694;51.748;14.326;2023-04-01T16:36:13;6.38;;;1.95;;
51612;SDS011;37694;51.748;14.326;2023-04-01T16:47:45;6.78;;;2.65;;
51612;SDS011;37694;51.748;14.326;2023-04-01T16:50:21;4.68;;;2.38;;
51612;SDS011;37694;51.748;14.326;2023-04-01T16:58:35;4.95;;;2.20;;
51612;SDS011;37694;51.748;14.326;2023-04-01T17:01:19;4.50;;;2.20;;
51612;SDS011;37694;51.748;14.326;2023-04-01T17:03:53;8.93;;;2.58;;
51612;SDS011;37694;51.748;14.326;2023-04-01T17:09:07;7.97;;;2.67;;
51612;SDS011;37694;51.748;14.326;2023-04-01T17:28:02;11.63;;;3.03;;
51612;SDS011;37694;51.748;14.326;2023-04-01T17:39:08;4.60;;;2.33;;
51612;SDS011;37694;51.748;14.326;2023-04-01T17:41:51;8.82;;;2.50;;
51612;SDS011;37694;51.748;14.326;2023-04-01T17:52:02;8.10;;;2.45;;
51612;SDS011;37694;51.748;14.326;2023-04-01T17:57:54;9.25;;;2.63;;
51612;SDS011;37694;51.748;14.326;2023-04-01T18:08:39;7.22;;;2.65;;
51612;SDS011;37694;51.748;14.326;2023-04-01T18:20:06;8.02;;;3.35;;
51612;SDS011;37694;51.748;14.326;2023-04-01T18:26:02;6.72;;;3.20;;
51612;SDS011;37694;51.748;14.326;2023-04-01T18:28:43;5.45;;;2.83;;
51612;SDS011;37694;51.748;14.326;2023-04-01T18:31:16;6.43;;;2.92;;
51612;SDS011;37694;51.748;14.326;2023-04-01T18:33:59;7.80;;;2.80;;
51612;SDS011;37694;51.748;14.326;2023-04-01T18:36:51;7.25;;;2.80;;
51612;SDS011;37694;51.748;14.326;2023-04-01T18:39:22;6.40;;;2.97;;
51612;SDS011;37694;51.748;14.326;2023-04-01T18:42:03;3.58;;;2.50;;
51612;SDS011;37694;51.748;14.326;2023-04-01T18:45:03;9.55;;;3.60;;
51612;SDS011;37694;51.748;14.326;2023-04-01T18:48:33;3.13;;;2.80;;
51612;SDS011;37694;51.748;14.326;2023-04-01T18:50:55;4.70;;;3.50;;
51612;SDS011;37694;51.748;14.326;2023-04-01T18:56:26;4.40;;;3.35;;
51612;SDS011;37694;51.748;14.326;2023-04-01T19:01:49;5.50;;;2.78;;
51612;SDS011;37694;51.748;14.326;2023-04-01T19:04:39;5.53;;;2.60;;
51612;SDS011;37694;51.748;14.326;2023-04-01T19:07:23;9.38;;;2.70;;
51612;SDS011;37694;51.748;14.326;2023-04-01T19:10:00;6.97;;;2.40;;
51612;SDS011;37694;51.748;14.326;2023-04-01T19:12:39;14.35;;;3.33;;
51612;SDS011;37694;51.748;14.326;2023-04-01T19:15:13;5.32;;;3.03;;
51612;SDS011;37694;51.748;14.326;2023-04-01T19:17:47;7.60;;;2.75;;
51612;SDS011;37694;51.748;14.326;2023-04-01T19:25:57;19.60;;;5.40;;
51612;SDS011;37694;51.748;14.326;2023-04-01T19:31:03;27.73;;;6.72;;
51612;SDS011;37694;51.748;14.326;2023-04-01T19:45:44;15.15;;;4.80;;
51612;SDS011;37694;51.748;14.326;2023-04-01T19:53:56;17.80;;;4.82;;
51612;SDS011;37694;51.748;14.326;2023-04-01T19:56:52;17.15;;;4.28;;
51612;SDS011;37694;51.748;14.326;2023-04-01T19:59:41;9.63;;;3.78;;
51612;SDS011;37694;51.748;14.326;2023-04-01T20:02:22;17.17;;;4.40;;
51612;SDS011;37694;51.748;14.326;2023-04-01T20:04:57;26.10;;;4.73;;
51612;SDS011;37694;51.748;14.326;2023-04-01T20:07:41;19.88;;;4.03;;
51612;SDS011;37694;51.748;14.326;2023-04-01T20:10:18;13.55;;;3.85;;
51612;SDS011;37694;51.748;14.326;2023-04-01T20:15:30;9.38;;;3.30;;
51612;SDS011;37694;51.748;14.326;2023-04-01T20:18:14;13.27;;;3.58;;
51612;SDS011;37694;51.748;14.326;2023-04-01T20:20:41;12.75;;;4.15;;
51612;SDS011;37694;51.748;14.326;2023-04-01T20:26:11;9.13;;;3.67;;
51612;SDS011;37694;51.748;14.326;2023-04-01T20:28:43;12.55;;;2.75;;
51612;SDS011;37694;51.748;14.326;2023-04-01T20:31:23;13.73;;;3.50;;
51612;SDS011;37694;51.748;14.326;2023-04-01T20:50:31;8.23;;;2.83;;
51612;SDS011;37694;51.748;14.326;2023-04-01T20:53:22;6.22;;;2.50;;
51612;SDS011;37694;51.748;14.326;2023-04-01T20:59:09;10.20;;;3.28;;
51612;SDS011;37694;51.748;14.326;2023-04-01T21:09:44;8.70;;;2.65;;
51612;SDS011;37694;51.748;14.326;2023-04-01T21:17:47;8.15;;;2.65;;
51612;SDS011;37694;51.748;14.326;2023-04-01T21:20:36;15.52;;;2.80;;
51612;SDS011;37694;51.748;14.326;2023-04-01T21:32:18;12.40;;;3.40;;
51612;SDS011;37694;51.748;14.326;2023-04-01T21:37:45;13.18;;;2.67;;
51612;SDS011;37694;51.748;14.326;2023-04-01T22:16:29;8.25;;;2.22;;
51612;SDS011;37694;51.748;14.326;2023-04-01T22:24:23;3.50;;;2.17;;
51612;SDS011;37694;51.748;14.326;2023-04-01T22:32:36;9.60;;;2.50;;
51612;SDS011;37694;51.748;14.326;2023-04-01T22:35:29;6.28;;;2.55;;
51612;SDS011;37694;51.748;14.326;2023-04-01T22:41:30;14.95;;;2.45;;
51612;SDS011;37694;51.748;14.326;2023-04-01T22:44:09;7.53;;;2.70;;
51612;SDS011;37694;51.748;14.326;2023-04-01T22:49:45;3.72;;;2.63;;
51612;SDS011;37694;51.748;14.326;2023-04-01T22:52:30;6.97;;;2.55;;
51612;SDS011;37694;51.748;14.326;2023-04-01T22:55:00;7.50;;;2.45;;
51612;SDS011;37694;51.748;14.326;2023-04-01T22:57:38;5.80;;;2.50;;
51612;SDS011;37694;51.748;14.326;2023-04-01T23:00:14;3.13;;;2.35;;
51612;SDS011;37694;51.748;14.326;2023-04-01T23:02:46;4.90;;;2.22;;
51612;SDS011;37694;51.748;14.326;2023-04-01T23:05:16;5.45;;;2.60;;
51612;SDS011;37694;51.748;14.326;2023-04-01T23:13:04;4.82;;;2.28;;
51612;SDS011;37694;51.748;14.326;2023-04-01T23:15:35;3.10;;;2.53;;
51612;SDS011;37694;51.748;14.326;2023-04-01T23:23:39;2.83;;;2.33;;
51612;SDS011;37694;51.748;14.326;2023-04-01T23:26:30;3.45;;;2.42;;
51612;SDS011;37694;51.748;14.326;2023-04-01T23:28:57;3.80;;;2.10;;
51612;SDS011;37694;51.748;14.326;2023-04-01T23:31:37;2.10;;;1.90;;
51612;SDS011;37694;51.748;14.326;2023-04-01T23:36:49;2.65;;;2.08;;
51612;SDS011;37694;51.748;14.326;2023-04-01T23:41:46;2.75;;;1.85;;
51612;SDS011;37694;51.748;14.326;2023-04-01T23:44:13;2.30;;;2.10;;
51612;SDS011;37694;51.748;14.326;2023-04-01T23:46:40;4.15;;;2.70;;
51612;SDS011;37694;51.748;14.326;2023-04-01T23:49:19;1.77;;;1.63;;
51612;SDS011;37694;51.748;14.326;2023-04-01T23:54:47;2.55;;;1.83;;
51612;SDS011;37694;51.748;14.326;2023-04-01T23:57:30;2.13;;;1.60;;
